Time;durP1;ratioP1;P1;durP2;ratioP2;P2;SDS_P1;SDS_P2;PMS_P1;PMS_P2;Temp;Humidity;BMP_temperature;BMP_pressure;BME280_temperature;BME280_humidity;BME280_pressure;Samples;Min_cycle;Max_cycle;Signal;HPM_P1;HPM_P2
2024/03/10 00:01:31;;;;;;;;;;;;;;;;;;5085001;28;19971;-67
2024/03/10 00:03:56;;;;;;;;;;;;;;;;;;5081640;28;20384;-67
2024/03/10 00:06:21;;;;;;;;;;;;;;;;;;5086877;28;20015;-69
2024/03/10 00:08:46;;;;;;;;;;;;;;;;;;5084806;28;19924;-68
2024/03/10 00:11:12;;;;;;;;;;;;;;;;;;5091064;28;19916;-68
2024/03/10 00:13:37;;;;;;;;;;;;;;;;;;5088760;28;19919;-68
2024/03/10 00:16:02;;;;;;;;;;;;;;;;;;5089604;28;19912;-67
2024/03/10 00:18:28;;;;;;;;;;;;;;;;;;5090568;28;19916;-68
2024/03/10 00:20:54;;;;;;;;;;;;;;;;;;5087315;28;19919;-68
2024/03/10 00:23:19;;;;;;;;;;;;;;;;;;5082098;28;19923;-68
2024/03/10 00:25:45;;;;;;;;;;;;;;;;;;5083999;28;19924;-69
2024/03/10 00:28:11;;;;;;;;;;;;;;;;;;5088738;28;19955;-68
2024/03/10 00:30:36;;;;;;;;;;;;;;;;;;5090743;28;19994;-68
2024/03/10 00:33:01;;;;;;;;;;;;;;;;;;5090387;28;20023;-67
2024/03/10 00:35:26;;;;;;;;;;;;;;;;;;5086814;28;19939;-69
2024/03/10 00:37:51;;;;;;;;;;;;;;;;;;5088474;28;19923;-68
2024/03/10 00:40:17;;;;;;;;;;;;;;;;;;5087792;28;20412;-69
2024/03/10 00:42:42;;;;;;;;;;;;;;;;;;5089749;28;19924;-68
2024/03/10 00:45:09;;;;;;;;;;;;;;;;;;5082876;28;19916;-69
2024/03/10 00:47:36;;;;;;;;;;;;;;;;;;5087725;28;19916;-69
2024/03/10 00:50:02;;;;;;;;;;;;;;;;;;5087539;28;19919;-69
2024/03/10 00:52:27;;;;;;;;;;;;;;;;;;5088179;28;19916;-68
2024/03/10 00:54:52;;;;;;;;;;;;;;;;;;5089120;28;19908;-64
2024/03/10 00:57:17;;;;;;;;;;;;;;;;;;5088853;28;20003;-68
2024/03/10 00:59:42;;;;;;;;;;;;;;;;;;5089397;28;20457;-67
2024/03/10 01:02:09;;;;;;;;;;;;;;;;;;5084523;28;19920;-68
2024/03/10 01:04:34;;;;;;;;;;;;;;;;;;5087295;28;19912;-68
2024/03/10 01:06:59;;;;;;;;;;;;;;;;;;5084279;28;20023;-68
2024/03/10 01:09:24;;;;;;;;;;;;;;;;;;5089237;28;20303;-68
2024/03/10 01:11:50;;;;;;;;;;;;;;;;;;5082535;28;19959;-68
2024/03/10 01:14:15;;;;;;;;;;;;;;;;;;5086826;28;19912;-68
2024/03/10 01:16:43;;;;;;;;;;;;;;;;;;5088745;28;19920;-68
2024/03/10 01:19:11;;;;;;;;;;;;;;;;;;5081265;28;19916;-69
2024/03/10 01:21:36;;;;;;;;;;;;;;;;;;5088795;28;19922;-69
2024/03/10 01:24:01;;;;;;;;;;;;;;;;;;5064314;28;19912;-66
2024/03/10 01:26:26;;;;;;;;;;;;;;;;;;5086280;28;19953;-69
2024/03/10 01:28:51;;;;;;;;;;;;;;;;;;5081701;28;19912;-68
2024/03/10 01:31:17;;;;;;;;;;;;;;;;;;5086746;28;19924;-68
2024/03/10 01:33:42;;;;;;;;;;;;;;;;;;5080047;28;19912;-69
2024/03/10 01:36:07;;;;;;;;;;;;;;;;;;5083361;28;19946;-68
2024/03/10 01:38:32;;;;;;;;;;;;;;;;;;5081012;28;19920;-68
2024/03/10 01:40:57;;;;;;;;;;;;;;;;;;5087369;28;20365;-68
2024/03/10 01:43:23;;;;;;;;;;;;;;;;;;5087316;28;19920;-68
2024/03/10 01:45:50;;;;;;;;;;;;;;;;;;5086225;28;19913;-70
2024/03/10 01:48:15;;;;;;;;;;;;;;;;;;5083471;28;19919;-69
2024/03/10 01:50:41;;;;;;;;;;;;;;;;;;5083981;28;19912;-69
2024/03/10 01:53:09;;;;;;;;;;;;;;;;;;5088262;28;19916;-68
2024/03/10 01:55:37;;;;;;;;;;;;;;;;;;5078735;28;20374;-68
2024/03/10 01:58:02;;;;;;;;;;;;;;;;;;5088266;28;19912;-69
2024/03/10 02:00:27;;;;;;;;;;;;;;;;;;5081850;28;19912;-67
2024/03/10 02:02:52;;;;;;;;;;;;;;;;;;5081165;28;19916;-65
2024/03/10 02:05:17;;;;;;;;;;;;;;;;;;5082065;28;19953;-67
2024/03/10 02:07:42;;;;;;;;;;;;;;;;;;5087649;28;19912;-68
2024/03/10 02:10:08;;;;;;;;;;;;;;;;;;5081165;28;19912;-63
2024/03/10 02:12:35;;;;;;;;;;;;;;;;;;5082558;28;19916;-59
2024/03/10 02:15:00;;;;;;;;;;;;;;;;;;5091733;28;19918;-58
2024/03/10 02:17:25;;;;;;;;;;;;;;;;;;5080353;28;19912;-59
2024/03/10 02:19:52;;;;;;;;;;;;;;;;;;5084963;28;20365;-58
2024/03/10 02:22:18;;;;;;;;;;;;;;;;;;5087628;28;19955;-59
2024/03/10 02:24:44;;;;;;;;;;;;;;;;;;5084045;28;19912;-59
2024/03/10 02:27:15;;;;;;;;;;;;;;;;;;5080133;28;19923;-59
2024/03/10 02:29:59;;;;;;;;;;;;;;;;;;5083203;28;20373;-59
2024/03/10 02:48:48;;;;;;;;;;;;;;;;;;5081519;28;19955;-58
2024/03/10 02:51:13;;;;;;;;;;;;;;;;;;5082450;28;19959;-59
2024/03/10 02:53:39;;;;;;;;;;;;;;;;;;5083233;28;19946;-59
2024/03/10 02:56:04;;;;;;;;;;;;;;;;;;5080744;28;19921;-59
2024/03/10 02:58:29;;;;;;;;;;;;;;;;;;5081202;28;19912;-58
2024/03/10 03:00:54;;;;;;;;;;;;;;;;;;5085832;28;19916;-58
2024/03/10 03:03:19;;;;;;;;;;;;;;;;;;5083322;28;19908;-59
2024/03/10 03:05:45;;;;;;;;;;;;;;;;;;5081853;28;19916;-60
2024/03/10 03:08:10;;;;;;;;;;;;;;;;;;5085907;28;19916;-58
2024/03/10 03:10:35;;;;;;;;;;;;;;;;;;5088853;28;19916;-59
2024/03/10 03:13:00;;;;;;;;;;;;;;;;;;5084556;28;20265;-59
2024/03/10 03:15:25;;;;;;;;;;;;;;;;;;5088110;28;20360;-59
2024/03/10 03:17:50;;;;;;;;;;;;;;;;;;5078968;28;20364;-59
2024/03/10 03:20:15;;;;;;;;;;;;;;;;;;5087482;28;20292;-67
2024/03/10 03:22:41;;;;;;;;;;;;;;;;;;5084265;28;19912;-68
2024/03/10 03:25:07;;;;;;;;;;;;;;;;;;5081798;28;19908;-69
2024/03/10 03:27:32;;;;;;;;;;;;;;;;;;5087187;28;19927;-66
2024/03/10 03:29:58;;;;;;;;;;;;;;;;;;5088344;28;19912;-70
2024/03/10 03:32:23;;;;;;;;;;;;;;;;;;5080732;28;19916;-67
2024/03/10 03:34:48;;;;;;;;;;;;;;;;;;5084552;28;20307;-68
2024/03/10 03:37:13;;;;;;;;;;;;;;;;;;5088215;28;19920;-69
2024/03/10 03:39:39;;;;;;;;;;;;;;;;;;5066717;28;19916;-67
2024/03/10 03:42:04;;;;;;;;;;;;;;;;;;5082028;28;20277;-69
2024/03/10 03:44:29;;;;;;;;;;;;;;;;;;5087038;28;19918;-70
2024/03/10 03:46:54;;;;;;;;;;;;;;;;;;5083683;28;19948;-68
2024/03/10 03:49:19;;;;;;;;;;;;;;;;;;5088665;28;19918;-66
2024/03/10 03:51:44;;;;;;;;;;;;;;;;;;5086972;28;19917;-68
2024/03/10 03:54:09;;;;;;;;;;;;;;;;;;5088912;28;19912;-68
2024/03/10 03:56:34;;;;;;;;;;;;;;;;;;5088930;28;19955;-67
2024/03/10 03:59:00;;;;;;;;;;;;;;;;;;5088538;28;20270;-68
2024/03/10 04:01:25;;;;;;;;;;;;;;;;;;5084139;28;19917;-68
2024/03/10 04:03:50;;;;;;;;;;;;;;;;;;5087271;28;19912;-68
2024/03/10 04:06:15;;;;;;;;;;;;;;;;;;5092201;28;20321;-67
2024/03/10 04:08:41;;;;;;;;;;;;;;;;;;5085320;28;19920;-67
2024/03/10 04:11:06;;;;;;;;;;;;;;;;;;5085948;28;19927;-68
2024/03/10 04:13:32;;;;;;;;;;;;;;;;;;5087080;28;20384;-67
2024/03/10 04:15:57;;;;;;;;;;;;;;;;;;5082084;28;19912;-70
2024/03/10 04:18:22;;;;;;;;;;;;;;;;;;5085200;28;19923;-67
2024/03/10 04:20:47;;;;;;;;;;;;;;;;;;5091788;28;19920;-68
2024/03/10 04:23:12;;;;;;;;;;;;;;;;;;5093419;28;20401;-67
2024/03/10 04:25:37;;;;;;;;;;;;;;;;;;5080527;28;20394;-70
2024/03/10 04:28:02;;;;;;;;;;;;;;;;;;5087515;28;19920;-67
2024/03/10 04:30:27;;;;;;;;;;;;;;;;;;5080443;28;19956;-67
2024/03/10 04:32:53;;;;;;;;;;;;;;;;;;5088871;28;19924;-67
2024/03/10 04:35:19;;;;;;;;;;;;;;;;;;5087276;28;19920;-67
2024/03/10 04:37:44;;;;;;;;;;;;;;;;;;5085861;28;19956;-69
2024/03/10 04:40:12;;;;;;;;;;;;;;;;;;5084781;28;19952;-68
2024/03/10 04:42:38;;;;;;;;;;;;;;;;;;5089037;28;20343;-68
2024/03/10 04:45:03;;;;;;;;;;;;;;;;;;5081920;28;19920;-68
2024/03/10 04:47:28;;;;;;;;;;;;;;;;;;5087886;28;20284;-68
2024/03/10 04:49:55;;;;;;;;;;;;;;;;;;5085017;28;19954;-66
2024/03/10 04:52:21;;;;;;;;;;;;;;;;;;5084550;28;19969;-67
2024/03/10 04:54:46;;;;;;;;;;;;;;;;;;5086402;28;19920;-68
2024/03/10 04:57:11;;;;;;;;;;;;;;;;;;5093598;28;19919;-68
2024/03/10 04:59:37;;;;;;;;;;;;;;;;;;5082990;28;19947;-68
2024/03/10 05:02:02;;;;;;;;;;;;;;;;;;5087302;28;19912;-68
2024/03/10 05:04:27;;;;;;;;;;;;;;;;;;5088545;28;19916;-68
2024/03/10 05:06:52;;;;;;;;;;;;;;;;;;5078101;28;19921;-68
2024/03/10 05:09:17;;;;;;;;;;;;;;;;;;5089329;28;19916;-67
2024/03/10 05:11:43;;;;;;;;;;;;;;;;;;5087776;28;19924;-68
2024/03/10 05:14:08;;;;;;;;;;;;;;;;;;5084679;28;20292;-67
2024/03/10 05:16:33;;;;;;;;;;;;;;;;;;5083718;28;19988;-63
2024/03/10 05:18:58;;;;;;;;;;;;;;;;;;5090276;28;19912;-66
2024/03/10 05:21:26;;;;;;;;;;;;;;;;;;5078969;28;20618;-67
2024/03/10 05:23:51;;;;;;;;;;;;;;;;;;5085418;28;20496;-68
2024/03/10 05:26:16;;;;;;;;;;;;;;;;;;5089252;28;19933;-67
2024/03/10 05:28:42;;;;;;;;;;;;;;;;;;5086573;28;19923;-68
2024/03/10 05:31:07;;;;;;;;;;;;;;;;;;5063722;28;19912;-68
2024/03/10 05:33:32;;;;;;;;;;;;;;;;;;5086517;28;19916;-68
2024/03/10 05:35:58;;;;;;;;;;;;;;;;;;5084266;28;19965;-67
2024/03/10 05:38:23;;;;;;;;;;;;;;;;;;5081679;28;19924;-67
2024/03/10 05:40:49;;;;;;;;;;;;;;;;;;5087780;28;19920;-58
2024/03/10 05:43:15;;;;;;;;;;;;;;;;;;5080812;28;19916;-60
2024/03/10 05:45:40;;;;;;;;;;;;;;;;;;5077211;28;19913;-58
2024/03/10 05:48:05;;;;;;;;;;;;;;;;;;5085807;28;20318;-60
2024/03/10 05:50:30;;;;;;;;;;;;;;;;;;5083763;28;20296;-59
2024/03/10 05:52:55;;;;;;;;;;;;;;;;;;5083355;28;20010;-59
2024/03/10 05:55:20;;;;;;;;;;;;;;;;;;5087620;28;19912;-58
2024/03/10 05:57:46;;;;;;;;;;;;;;;;;;5089387;28;20000;-59
2024/03/10 06:00:16;;;;;;;;;;;;;;;;;;5079501;28;20307;-59
2024/03/10 06:02:44;;;;;;;;;;;;;;;;;;5084658;28;20360;-59
2024/03/10 06:05:09;;;;;;;;;;;;;;;;;;5082705;28;19994;-59
2024/03/10 06:07:35;;;;;;;;;;;;;;;;;;5079519;28;20386;-59
2024/03/10 06:10:00;;;;;;;;;;;;;;;;;;5080405;28;19912;-59
2024/03/10 06:12:25;;;;;;;;;;;;;;;;;;5083697;28;19927;-59
2024/03/10 06:14:50;;;;;;;;;;;;;;;;;;5080730;28;19920;-59
2024/03/10 06:17:16;;;;;;;;;;;;;;;;;;5080118;28;19912;-60
2024/03/10 06:25:27;;;;;;;;;;;;;;;;;;5079598;28;19941;-59
2024/03/10 06:27:52;;;;;;;;;;;;;;;;;;5080360;28;19920;-59
2024/03/10 06:30:19;;;;;;;;;;;;;;;;;;5084854;28;19912;-59
2024/03/10 06:32:44;;;;;;;;;;;;;;;;;;5085963;28;20262;-58
2024/03/10 06:35:09;;;;;;;;;;;;;;;;;;5090687;28;20388;-58
2024/03/10 06:37:35;;;;;;;;;;;;;;;;;;5096671;28;20391;-58
2024/03/10 06:40:00;;;;;;;;;;;;;;;;;;5089543;28;19923;-58
2024/03/10 06:42:25;;;;;;;;;;;;;;;;;;5087207;28;20016;-59
2024/03/10 06:44:50;;;;;;;;;;;;;;;;;;5080792;28;19917;-58
2024/03/10 06:47:16;;;;;;;;;;;;;;;;;;5077786;28;19998;-58
2024/03/10 06:49:41;;;;;;;;;;;;;;;;;;5080313;28;19912;-60
2024/03/10 06:52:06;;;;;;;;;;;;;;;;;;5080411;28;19964;-67
2024/03/10 06:54:31;;;;;;;;;;;;;;;;;;5084178;28;19918;-67
2024/03/10 06:56:56;;;;;;;;;;;;;;;;;;5082577;28;19926;-66
2024/03/10 06:59:22;;;;;;;;;;;;;;;;;;5080429;28;19954;-68
2024/03/10 07:01:47;;;;;;;;;;;;;;;;;;5084010;28;19920;-68
2024/03/10 07:04:13;;;;;;;;;;;;;;;;;;5085537;28;20330;-67
2024/03/10 07:06:41;;;;;;;;;;;;;;;;;;5081461;28;19948;-67
2024/03/10 07:09:10;;;;;;;;;;;;;;;;;;5087169;28;19920;-66
2024/03/10 07:11:35;;;;;;;;;;;;;;;;;;5080511;28;19916;-68
2024/03/10 07:14:00;;;;;;;;;;;;;;;;;;5084116;28;19923;-66
2024/03/10 07:16:25;;;;;;;;;;;;;;;;;;5076586;28;19916;-66
2024/03/10 07:18:50;;;;;;;;;;;;;;;;;;5081705;28;20002;-66
2024/03/10 07:21:16;;;;;;;;;;;;;;;;;;5082161;28;19965;-66
2024/03/10 07:23:41;;;;;;;;;;;;;;;;;;5085871;28;20020;-67
2024/03/10 07:26:06;;;;;;;;;;;;;;;;;;5087817;28;19927;-67
2024/03/10 07:28:31;;;;;;;;;;;;;;;;;;5078918;28;19919;-68
2024/03/10 07:30:56;;;;;;;;;;;;;;;;;;5085493;28;19997;-65
2024/03/10 07:33:22;;;;;;;;;;;;;;;;;;5086267;28;19919;-67
2024/03/10 07:35:47;;;;;;;;;;;;;;;;;;5080821;28;19916;-67
2024/03/10 07:38:13;;;;;;;;;;;;;;;;;;5079641;28;20380;-68
2024/03/10 07:40:38;;;;;;;;;;;;;;;;;;5085434;28;19999;-68
2024/03/10 07:43:04;;;;;;;;;;;;;;;;;;5082196;28;19924;-63
2024/03/10 07:45:31;;;;;;;;;;;;;;;;;;5083590;28;19916;-67
2024/03/10 07:47:58;;;;;;;;;;;;;;;;;;5085595;28;19923;-69
2024/03/10 07:50:23;;;;;;;;;;;;;;;;;;5079312;28;21602;-67
2024/03/10 07:52:48;;;;;;;;;;;;;;;;;;5081745;28;19920;-66
2024/03/10 07:55:13;;;;;;;;;;;;;;;;;;5085843;28;19934;-69
2024/03/10 07:57:39;;;;;;;;;;;;;;;;;;5088537;28;19920;-68
2024/03/10 08:00:05;;;;;;;;;;;;;;;;;;5085145;28;19916;-68
2024/03/10 08:02:30;;;;;;;;;;;;;;;;;;5092345;28;19912;-58
2024/03/10 08:04:55;;;;;;;;;;;;;;;;;;5085901;28;19915;-57
2024/03/10 08:07:20;;;;;;;;;;;;;;;;;;5089456;28;19987;-58
2024/03/10 08:09:45;;;;;;;;;;;;;;;;;;5090420;28;20330;-58
2024/03/10 08:12:11;;;;;;;;;;;;;;;;;;5086130;28;19917;-59
2024/03/10 08:14:38;;;;;;;;;;;;;;;;;;5086924;28;19912;-58
2024/03/10 08:17:03;;;;;;;;;;;;;;;;;;5094143;28;19958;-57
2024/03/10 08:19:28;;;;;;;;;;;;;;;;;;5086711;28;19955;-59
2024/03/10 08:21:53;;;;;;;;;;;;;;;;;;5086183;28;19920;-58
2024/03/10 08:24:18;;;;;;;;;;;;;;;;;;5090533;28;19908;-59
2024/03/10 08:26:43;;;;;;;;;;;;;;;;;;5080401;28;19920;-59
2024/03/10 08:29:08;;;;;;;;;;;;;;;;;;5084640;28;19912;-58
2024/03/10 08:31:33;;;;;;;;;;;;;;;;;;5086691;28;20006;-58
2024/03/10 08:33:59;;;;;;;;;;;;;;;;;;5081717;28;19947;-58
2024/03/10 08:36:24;;;;;;;;;;;;;;;;;;5088611;28;19920;-58
2024/03/10 08:38:49;;;;;;;;;;;;;;;;;;5091219;28;19920;-59
2024/03/10 08:41:14;;;;;;;;;;;;;;;;;;5086210;28;19930;-58
2024/03/10 08:43:39;;;;;;;;;;;;;;;;;;5084451;28;19946;-58
2024/03/10 08:46:04;;;;;;;;;;;;;;;;;;5086986;28;19916;-59
2024/03/10 08:48:30;;;;;;;;;;;;;;;;;;5082317;28;19916;-58
2024/03/10 08:50:55;;;;;;;;;;;;;;;;;;5088439;28;20382;-58
2024/03/10 08:53:20;;;;;;;;;;;;;;;;;;5083819;28;19916;-59
2024/03/10 08:55:45;;;;;;;;;;;;;;;;;;5084884;28;19912;-58
2024/03/10 08:58:11;;;;;;;;;;;;;;;;;;5086237;28;19912;-58
2024/03/10 09:00:36;;;;;;;;;;;;;;;;;;5079022;28;20361;-58
2024/03/10 09:03:03;;;;;;;;;;;;;;;;;;5084566;28;19923;-58
2024/03/10 09:05:29;;;;;;;;;;;;;;;;;;5088821;28;19931;-59
2024/03/10 09:07:55;;;;;;;;;;;;;;;;;;5086941;28;19912;-58
2024/03/10 09:10:23;;;;;;;;;;;;;;;;;;5079112;28;19916;-69
2024/03/10 09:12:49;;;;;;;;;;;;;;;;;;5087840;28;20349;-68
2024/03/10 09:15:15;;;;;;;;;;;;;;;;;;5084574;28;19919;-68
2024/03/10 09:17:41;;;;;;;;;;;;;;;;;;5081711;28;19912;-68
2024/03/10 09:20:11;;;;;;;;;;;;;;;;;;5074656;28;20433;-68
2024/03/10 09:22:37;;;;;;;;;;;;;;;;;;5079079;28;19920;-68
2024/03/10 09:25:06;;;;;;;;;;;;;;;;;;5083914;28;19912;-69
2024/03/10 09:27:31;;;;;;;;;;;;;;;;;;5088953;28;19920;-68
2024/03/10 09:29:57;;;;;;;;;;;;;;;;;;5088135;28;19927;-67
2024/03/10 09:32:26;;;;;;;;;;;;;;;;;;5092247;28;19916;-69
2024/03/10 09:34:51;;;;;;;;;;;;;;;;;;5094034;28;20349;-70
2024/03/10 09:37:17;;;;;;;;;;;;;;;;;;5088190;28;19919;-68
2024/03/10 09:39:42;;;;;;;;;;;;;;;;;;5091536;28;20513;-68
2024/03/10 09:42:07;;;;;;;;;;;;;;;;;;5092368;28;19920;-68
2024/03/10 09:44:32;;;;;;;;;;;;;;;;;;5098043;28;19912;-69
2024/03/10 09:46:57;;;;;;;;;;;;;;;;;;5090343;28;19916;-67
2024/03/10 09:49:22;;;;;;;;;;;;;;;;;;5097322;28;19916;-68
2024/03/10 09:51:50;;;;;;;;;;;;;;;;;;5089267;28;19919;-68
2024/03/10 09:54:17;;;;;;;;;;;;;;;;;;5096552;28;19939;-68
2024/03/10 09:56:42;;;;;;;;;;;;;;;;;;5087978;28;19923;-67
2024/03/10 09:59:07;;;;;;;;;;;;;;;;;;5094773;28;20673;-67
2024/03/10 10:01:33;;;;;;;;;;;;;;;;;;5095711;28;19930;-68
2024/03/10 10:04:01;;;;;;;;;;;;;;;;;;5093363;28;20273;-68
2024/03/10 10:06:26;;;;;;;;;;;;;;;;;;5089839;28;19916;-69
2024/03/10 10:08:54;;;;;;;;;;;;;;;;;;5093072;28;19991;-69
2024/03/10 10:11:19;;;;;;;;;;;;;;;;;;5094198;28;19912;-67
2024/03/10 10:13:44;;;;;;;;;;;;;;;;;;5089639;28;20470;-68
2024/03/10 10:16:10;;;;;;;;;;;;;;;;;;5096789;28;19947;-68
2024/03/10 10:18:38;;;;;;;;;;;;;;;;;;5085244;28;19920;-68
2024/03/10 10:21:07;;;;;;;;;;;;;;;;;;5089757;28;19920;-58
2024/03/10 10:23:32;;;;;;;;;;;;;;;;;;5091161;28;19926;-59
2024/03/10 10:25:58;;;;;;;;;;;;;;;;;;5074114;28;20007;-58
2024/03/10 10:28:24;;;;;;;;;;;;;;;;;;5078552;28;19920;-59
2024/03/10 10:30:49;;;;;;;;;;;;;;;;;;5079254;28;20030;-58
2024/03/10 10:33:14;;;;;;;;;;;;;;;;;;5068175;28;19970;-58
2024/03/10 10:35:39;;;;;;;;;;;;;;;;;;5074980;28;19938;-59
2024/03/10 10:38:11;;;;;;;;;;;;;;;;;;5080397;28;20331;-59
2024/03/10 10:40:36;;;;;;;;;;;;;;;;;;5072759;28;19920;-59
2024/03/10 10:43:01;;;;;;;;;;;;;;;;;;5076492;28;19923;-61
2024/03/10 10:45:26;;;;;;;;;;;;;;;;;;5079844;28;19927;-59
2024/03/10 10:47:51;;;;;;;;;;;;;;;;;;5072694;28;19955;-59
2024/03/10 10:50:24;;;;;;;;;;;;;;;;;;5077321;28;19924;-60
2024/03/10 10:52:50;;;;;;;;;;;;;;;;;;5085729;28;19920;-60
2024/03/10 10:55:16;;;;;;;;;;;;;;;;;;5069711;28;19928;-58
2024/03/10 10:57:42;;;;;;;;;;;;;;;;;;5069044;28;20573;-59
2024/03/10 11:00:13;;;;;;;;;;;;;;;;;;5075134;28;19919;-59
2024/03/10 11:02:39;;;;;;;;;;;;;;;;;;5069583;28;19923;-59
2024/03/10 11:05:07;;;;;;;;;;;;;;;;;;5068065;28;19924;-58
2024/03/10 11:07:32;;;;;;;;;;;;;;;;;;5075951;28;19916;-59
2024/03/10 11:09:57;;;;;;;;;;;;;;;;;;5077482;28;19923;-58
2024/03/10 11:12:23;;;;;;;;;;;;;;;;;;5074654;28;20343;-59
2024/03/10 11:14:48;;;;;;;;;;;;;;;;;;5080801;28;19923;-58
2024/03/10 11:17:13;;;;;;;;;;;;;;;;;;5080308;28;19920;-59
2024/03/10 11:19:40;;;;;;;;;;;;;;;;;;5077308;28;19916;-59
2024/03/10 11:22:05;;;;;;;;;;;;;;;;;;5080840;28;20007;-61
2024/03/10 11:24:30;;;;;;;;;;;;;;;;;;5097631;28;20006;-59
2024/03/10 11:26:56;;;;;;;;;;;;;;;;;;5095716;28;19943;-60
2024/03/10 11:29:21;;;;;;;;;;;;;;;;;;5096914;28;19912;-59
2024/03/10 11:31:46;;;;;;;;;;;;;;;;;;5090219;28;20011;-59
2024/03/10 11:34:13;;;;;;;;;;;;;;;;;;5071324;28;19955;-60
2024/03/10 11:36:38;;;;;;;;;;;;;;;;;;5075204;28;20361;-60
2024/03/10 11:39:04;;;;;;;;;;;;;;;;;;5077350;28;19920;-60
2024/03/10 11:41:29;;;;;;;;;;;;;;;;;;5077205;28;20011;-59
2024/03/10 11:43:54;;;;;;;;;;;;;;;;;;5078906;28;20011;-60
2024/03/10 11:46:19;;;;;;;;;;;;;;;;;;5079644;28;19958;-58
2024/03/10 11:48:45;;;;;;;;;;;;;;;;;;5081539;28;20335;-59
2024/03/10 11:51:12;;;;;;;;;;;;;;;;;;5084112;28;20321;-59
2024/03/10 11:53:38;;;;;;;;;;;;;;;;;;5080027;28;19917;-59
2024/03/10 11:56:04;;;;;;;;;;;;;;;;;;5080088;28;20011;-59
2024/03/10 11:58:29;;;;;;;;;;;;;;;;;;5072422;28;19942;-58
2024/03/10 12:00:54;;;;;;;;;;;;;;;;;;5076381;28;20408;-59
2024/03/10 12:03:20;;;;;;;;;;;;;;;;;;5087398;28;19969;-59
2024/03/10 12:05:46;;;;;;;;;;;;;;;;;;5088049;28;20144;-60
2024/03/10 12:08:13;;;;;;;;;;;;;;;;;;5079504;28;19916;-60
2024/03/10 12:10:38;;;;;;;;;;;;;;;;;;5079377;28;20289;-59
2024/03/10 12:13:03;;;;;;;;;;;;;;;;;;5083749;28;20365;-62
2024/03/10 12:15:29;;;;;;;;;;;;;;;;;;5086252;28;20376;-58
2024/03/10 12:17:55;;;;;;;;;;;;;;;;;;5078392;28;19916;-58
2024/03/10 12:20:20;;;;;;;;;;;;;;;;;;5081531;28;20473;-59
2024/03/10 12:22:45;;;;;;;;;;;;;;;;;;5083484;28;19920;-59
2024/03/10 12:25:10;;;;;;;;;;;;;;;;;;5085267;28;20018;-59
2024/03/10 12:27:35;;;;;;;;;;;;;;;;;;5081475;28;19921;-60
2024/03/10 12:30:03;;;;;;;;;;;;;;;;;;5082988;28;19927;-60
2024/03/10 12:32:28;;;;;;;;;;;;;;;;;;5075056;28;20014;-58
2024/03/10 12:34:53;;;;;;;;;;;;;;;;;;5075406;28;20022;-61
2024/03/10 12:37:18;;;;;;;;;;;;;;;;;;5076899;28;19923;-58
2024/03/10 12:39:45;;;;;;;;;;;;;;;;;;5085528;28;19920;-61
2024/03/10 12:42:13;;;;;;;;;;;;;;;;;;5074736;28;20391;-69
2024/03/10 12:44:39;;;;;;;;;;;;;;;;;;5062719;28;20269;-69
2024/03/10 12:47:05;;;;;;;;;;;;;;;;;;5081946;28;19917;-68
2024/03/10 12:49:30;;;;;;;;;;;;;;;;;;5074612;28;20357;-68
2024/03/10 12:51:55;;;;;;;;;;;;;;;;;;5076329;28;19936;-68
2024/03/10 12:54:20;;;;;;;;;;;;;;;;;;5076058;28;19916;-67
2024/03/10 12:56:45;;;;;;;;;;;;;;;;;;5074782;28;19916;-67
2024/03/10 12:59:11;;;;;;;;;;;;;;;;;;5076575;28;19917;-67
2024/03/10 13:01:36;;;;;;;;;;;;;;;;;;5077327;28;19916;-66
2024/03/10 13:04:01;;;;;;;;;;;;;;;;;;5071326;28;19943;-68
2024/03/10 13:06:26;;;;;;;;;;;;;;;;;;5079460;28;19917;-67
2024/03/10 13:08:52;;;;;;;;;;;;;;;;;;5073509;28;19916;-68
2024/03/10 13:11:18;;;;;;;;;;;;;;;;;;5085402;28;19916;-68
2024/03/10 13:13:43;;;;;;;;;;;;;;;;;;5072547;28;20027;-68
2024/03/10 13:16:09;;;;;;;;;;;;;;;;;;5086885;28;20081;-67
2024/03/10 13:18:34;;;;;;;;;;;;;;;;;;5079265;28;19958;-67
2024/03/10 13:20:59;;;;;;;;;;;;;;;;;;5083855;28;19938;-67
2024/03/10 13:23:25;;;;;;;;;;;;;;;;;;5077927;28;19928;-68
2024/03/10 13:25:50;;;;;;;;;;;;;;;;;;5079723;28;20352;-67
2024/03/10 13:28:16;;;;;;;;;;;;;;;;;;5081214;28;20007;-67
2024/03/10 13:30:42;;;;;;;;;;;;;;;;;;5079341;28;19924;-65
2024/03/10 13:33:08;;;;;;;;;;;;;;;;;;5080803;28;20704;-65
2024/03/10 13:35:33;;;;;;;;;;;;;;;;;;5074079;28;19974;-66
2024/03/10 13:38:02;;;;;;;;;;;;;;;;;;5072183;28;20385;-67
2024/03/10 13:40:27;;;;;;;;;;;;;;;;;;5074215;28;19924;-66
2024/03/10 13:42:53;;;;;;;;;;;;;;;;;;5087581;28;19917;-68
2024/03/10 13:45:19;;;;;;;;;;;;;;;;;;5077769;28;19987;-67
2024/03/10 13:47:44;;;;;;;;;;;;;;;;;;5089088;28;19927;-66
2024/03/10 13:50:13;;;;;;;;;;;;;;;;;;5074407;28;19917;-66
2024/03/10 13:52:38;;;;;;;;;;;;;;;;;;5073307;28;20007;-66
2024/03/10 13:55:06;;;;;;;;;;;;;;;;;;5080759;28;20011;-67
2024/03/10 13:57:31;;;;;;;;;;;;;;;;;;5090090;28;19916;-66
2024/03/10 13:59:56;;;;;;;;;;;;;;;;;;5084555;28;19921;-67
2024/03/10 14:02:21;;;;;;;;;;;;;;;;;;5076715;28;19916;-67
2024/03/10 14:04:46;;;;;;;;;;;;;;;;;;5072726;28;19912;-67
2024/03/10 14:07:11;;;;;;;;;;;;;;;;;;5077408;28;19927;-66
2024/03/10 14:09:37;;;;;;;;;;;;;;;;;;5090981;28;19916;-65
2024/03/10 14:12:05;;;;;;;;;;;;;;;;;;5090152;28;20011;-67
2024/03/10 14:14:30;;;;;;;;;;;;;;;;;;5084050;28;19916;-66
2024/03/10 14:16:57;;;;;;;;;;;;;;;;;;5079516;28;20154;-66
2024/03/10 14:19:22;;;;;;;;;;;;;;;;;;5075595;28;19962;-65
2024/03/10 14:21:47;;;;;;;;;;;;;;;;;;5070548;28;19917;-66
2024/03/10 14:24:12;;;;;;;;;;;;;;;;;;5070887;28;20439;-65
2024/03/10 14:26:38;;;;;;;;;;;;;;;;;;5077212;28;19917;-65
2024/03/10 14:29:03;;;;;;;;;;;;;;;;;;5081383;28;19920;-66
2024/03/10 14:31:29;;;;;;;;;;;;;;;;;;5090378;28;19920;-65
2024/03/10 14:33:54;;;;;;;;;;;;;;;;;;5070175;28;20391;-67
2024/03/10 14:36:20;;;;;;;;;;;;;;;;;;5090546;28;19916;-66
2024/03/10 14:38:45;;;;;;;;;;;;;;;;;;5075606;28;19917;-66
2024/03/10 14:41:10;;;;;;;;;;;;;;;;;;5072413;28;19928;-63
2024/03/10 14:43:35;;;;;;;;;;;;;;;;;;5079242;28;19924;-64
2024/03/10 14:46:00;;;;;;;;;;;;;;;;;;5081747;28;19923;-66
2024/03/10 14:48:25;;;;;;;;;;;;;;;;;;5079055;28;19941;-66
2024/03/10 14:50:50;;;;;;;;;;;;;;;;;;5078991;28;20373;-66
2024/03/10 14:53:15;;;;;;;;;;;;;;;;;;5081287;28;19924;-65
2024/03/10 14:55:41;;;;;;;;;;;;;;;;;;5077015;28;19995;-65
2024/03/10 14:58:09;;;;;;;;;;;;;;;;;;5082829;28;19916;-65
2024/03/10 15:03:03;;;;;;;;;;;;;;;;;;5083917;28;19916;-66
2024/03/10 15:05:28;;;;;;;;;;;;;;;;;;5077428;28;20034;-66
2024/03/10 15:07:53;;;;;;;;;;;;;;;;;;5087354;28;19951;-66
2024/03/10 15:10:18;;;;;;;;;;;;;;;;;;5076088;28;20376;-65
2024/03/10 15:12:44;;;;;;;;;;;;;;;;;;5082444;28;20380;-65
2024/03/10 15:15:10;;;;;;;;;;;;;;;;;;5072964;28;19999;-66
2024/03/10 15:17:36;;;;;;;;;;;;;;;;;;5067742;28;19955;-65
2024/03/10 15:20:01;;;;;;;;;;;;;;;;;;5078769;28;19916;-65
2024/03/10 15:22:26;;;;;;;;;;;;;;;;;;5079693;28;19923;-66
2024/03/10 15:24:53;;;;;;;;;;;;;;;;;;5079514;28;19958;-66
2024/03/10 15:27:18;;;;;;;;;;;;;;;;;;5080819;28;19923;-64
2024/03/10 15:29:43;;;;;;;;;;;;;;;;;;5076018;28;19916;-64
2024/03/10 15:32:09;;;;;;;;;;;;;;;;;;5068795;28;19920;-67
2024/03/10 15:34:35;;;;;;;;;;;;;;;;;;5075062;28;19979;-66
2024/03/10 15:37:01;;;;;;;;;;;;;;;;;;5069799;28;19923;-69
2024/03/10 15:39:27;;;;;;;;;;;;;;;;;;5089327;28;19916;-66
2024/03/10 15:41:54;;;;;;;;;;;;;;;;;;5084118;28;20070;-66
2024/03/10 15:44:24;;;;;;;;;;;;;;;;;;5078254;28;20373;-65
2024/03/10 15:46:49;;;;;;;;;;;;;;;;;;5070088;28;19917;-65
2024/03/10 15:49:14;;;;;;;;;;;;;;;;;;5077697;28;19916;-65
2024/03/10 15:51:40;;;;;;;;;;;;;;;;;;5072541;28;19916;-65
2024/03/10 15:54:06;;;;;;;;;;;;;;;;;;5067808;28;20614;-66
2024/03/10 15:56:31;;;;;;;;;;;;;;;;;;5082656;28;20648;-65
2024/03/10 15:58:56;;;;;;;;;;;;;;;;;;5078932;28;19916;-66
2024/03/10 16:01:21;;;;;;;;;;;;;;;;;;5071870;28;19916;-66
2024/03/10 16:03:46;;;;;;;;;;;;;;;;;;5077807;28;19951;-65
2024/03/10 16:06:11;;;;;;;;;;;;;;;;;;5080722;28;19923;-64
2024/03/10 16:08:38;;;;;;;;;;;;;;;;;;5082527;28;19923;-66
2024/03/10 16:11:03;;;;;;;;;;;;;;;;;;5082013;28;19920;-66
2024/03/10 16:13:29;;;;;;;;;;;;;;;;;;5074442;28;19926;-65
2024/03/10 16:15:54;;;;;;;;;;;;;;;;;;5082538;28;19922;-66
2024/03/10 16:18:19;;;;;;;;;;;;;;;;;;5078286;28;20030;-64
2024/03/10 16:20:44;;;;;;;;;;;;;;;;;;5070904;28;19922;-59
2024/03/10 16:23:09;;;;;;;;;;;;;;;;;;5076373;28;19946;-65
2024/03/10 16:25:36;;;;;;;;;;;;;;;;;;5076785;28;19916;-65
2024/03/10 16:28:01;;;;;;;;;;;;;;;;;;5087027;28;19917;-68
2024/03/10 16:30:26;;;;;;;;;;;;;;;;;;5074903;28;19927;-66
2024/03/10 16:32:51;;;;;;;;;;;;;;;;;;5079280;28;19962;-59
2024/03/10 16:35:16;;;;;;;;;;;;;;;;;;5073024;28;19920;-59
2024/03/10 16:37:41;;;;;;;;;;;;;;;;;;5077230;28;19978;-60
2024/03/10 16:40:08;;;;;;;;;;;;;;;;;;5078035;28;19917;-59
2024/03/10 16:42:34;;;;;;;;;;;;;;;;;;5074238;28;19928;-61
2024/03/10 16:44:59;;;;;;;;;;;;;;;;;;5078770;28;20623;-59
2024/03/10 16:47:24;;;;;;;;;;;;;;;;;;5082873;28;19920;-59
2024/03/10 16:49:52;;;;;;;;;;;;;;;;;;5074731;28;19920;-60
2024/03/10 16:52:19;;;;;;;;;;;;;;;;;;5077772;28;19959;-58
2024/03/10 16:54:44;;;;;;;;;;;;;;;;;;5079807;28;19921;-59
2024/03/10 16:57:09;;;;;;;;;;;;;;;;;;5073106;28;19923;-59
2024/03/10 16:59:34;;;;;;;;;;;;;;;;;;5076382;28;19942;-59